sensor_id;sensor_type;location;lat;lon;timestamp;temperature;humidity
78696;SHT31;68030;51.980;5.646;2023-03-03T05:19:44;7.2;56.3
78696;SHT31;68030;51.980;5.646;2023-03-03T05:22:14;6.7;58.0
78696;SHT31;68030;51.980;5.646;2023-03-03T05:24:44;6.5;58.5
78696;SHT31;68030;51.980;5.646;2023-03-03T05:27:16;6.3;59.3
78696;SHT31;68030;51.980;5.646;2023-03-03T05:29:45;6.1;60.0
78696;SHT31;68030;51.980;5.646;2023-03-03T05:32:15;5.9;60.7
78696;SHT31;68030;51.980;5.646;2023-03-03T05:34:45;5.8;61.1
78696;SHT31;68030;51.980;5.646;2023-03-03T05:37:14;5.7;61.6
78696;SHT31;68030;51.980;5.646;2023-03-03T05:39:44;5.6;61.9
78696;SHT31;68030;51.980;5.646;2023-03-03T05:42:13;5.5;62.3
78696;SHT31;68030;51.980;5.646;2023-03-03T05:44:43;5.4;62.6
78696;SHT31;68030;51.980;5.646;2023-03-03T05:47:12;5.3;63.0
78696;SHT31;68030;51.980;5.646;2023-03-03T05:49:42;5.2;63.6
78696;SHT31;68030;51.980;5.646;2023-03-03T05:52:11;5.2;64.1
78696;SHT31;68030;51.980;5.646;2023-03-03T05:54:41;5.1;64.3
78696;SHT31;68030;51.980;5.646;2023-03-03T05:57:10;5.1;64.7
78696;SHT31;68030;51.980;5.646;2023-03-03T05:59:40;5.0;65.0
78696;SHT31;68030;51.980;5.646;2023-03-03T06:02:10;5.0;65.3
78696;SHT31;68030;51.980;5.646;2023-03-03T06:04:39;5.0;65.5
78696;SHT31;68030;51.980;5.646;2023-03-03T06:07:09;4.9;65.6
78696;SHT31;68030;51.980;5.646;2023-03-03T06:09:39;4.9;65.8
78696;SHT31;68030;51.980;5.646;2023-03-03T06:12:08;4.9;65.9
78696;SHT31;68030;51.980;5.646;2023-03-03T06:14:39;4.9;66.0
78696;SHT31;68030;51.980;5.646;2023-03-03T06:17:10;4.9;65.9
78696;SHT31;68030;51.980;5.646;2023-03-03T06:19:42;4.9;66.1
78696;SHT31;68030;51.980;5.646;2023-03-03T06:22:11;4.9;66.1
78696;SHT31;68030;51.980;5.646;2023-03-03T06:24:43;4.9;66.1
78696;SHT31;68030;51.980;5.646;2023-03-03T06:27:12;4.9;66.1
78696;SHT31;68030;51.980;5.646;2023-03-03T06:29:42;4.9;66.1
78696;SHT31;68030;51.980;5.646;2023-03-03T06:32:13;4.9;66.2
78696;SHT31;68030;51.980;5.646;2023-03-03T06:34:42;4.9;66.2
78696;SHT31;68030;51.980;5.646;2023-03-03T06:37:12;5.0;66.2
78696;SHT31;68030;51.980;5.646;2023-03-03T06:39:42;5.0;66.2
78696;SHT31;68030;51.980;5.646;2023-03-03T06:42:12;5.0;66.3
78696;SHT31;68030;51.980;5.646;2023-03-03T06:44:41;5.0;66.4
78696;SHT31;68030;51.980;5.646;2023-03-03T06:47:11;5.0;66.2
78696;SHT31;68030;51.980;5.646;2023-03-03T06:49:41;5.1;66.3
78696;SHT31;68030;51.980;5.646;2023-03-03T06:52:13;5.1;66.4
78696;SHT31;68030;51.980;5.646;2023-03-03T06:54:43;5.1;66.4
78696;SHT31;68030;51.980;5.646;2023-03-03T06:57:25;5.1;66.4
78696;SHT31;68030;51.980;5.646;2023-03-03T06:59:59;5.2;66.5
78696;SHT31;68030;51.980;5.646;2023-03-03T07:02:30;5.2;66.4
78696;SHT31;68030;51.980;5.646;2023-03-03T07:05:00;5.3;66.4
78696;SHT31;68030;51.980;5.646;2023-03-03T07:07:30;5.3;66.2
78696;SHT31;68030;51.980;5.646;2023-03-03T07:10:00;5.4;65.9
78696;SHT31;68030;51.980;5.646;2023-03-03T07:12:35;5.5;65.8
78696;SHT31;68030;51.980;5.646;2023-03-03T07:15:14;5.5;65.7
78696;SHT31;68030;51.980;5.646;2023-03-03T07:17:47;5.5;65.9
78696;SHT31;68030;51.980;5.646;2023-03-03T07:20:20;5.6;65.8
78696;SHT31;68030;51.980;5.646;2023-03-03T07:22:53;5.6;65.9
78696;SHT31;68030;51.980;5.646;2023-03-03T07:25:31;5.6;65.9
78696;SHT31;68030;51.980;5.646;2023-03-03T07:28:13;5.7;66.0
78696;SHT31;68030;51.980;5.646;2023-03-03T07:30:46;5.7;66.0
78696;SHT31;68030;51.980;5.646;2023-03-03T07:33:24;5.7;66.1
78696;SHT31;68030;51.980;5.646;2023-03-03T07:35:56;5.8;65.9
78696;SHT31;68030;51.980;5.646;2023-03-03T07:38:30;5.9;65.7
78696;SHT31;68030;51.980;5.646;2023-03-03T07:41:02;5.9;65.6
78696;SHT31;68030;51.980;5.646;2023-03-03T07:43:40;5.9;65.8
78696;SHT31;68030;51.980;5.646;2023-03-03T07:46:22;6.0;65.6
78696;SHT31;68030;51.980;5.646;2023-03-03T07:48:52;6.0;65.7
78696;SHT31;68030;51.980;5.646;2023-03-03T07:51:25;6.1;65.6
78696;SHT31;68030;51.980;5.646;2023-03-03T07:54:09;6.1;65.5
78696;SHT31;68030;51.980;5.646;2023-03-03T07:56:35;6.1;65.5
78696;SHT31;68030;51.980;5.646;2023-03-03T07:59:17;6.2;65.4
78696;SHT31;68030;51.980;5.646;2023-03-03T08:01:51;6.2;65.5
78696;SHT31;68030;51.980;5.646;2023-03-03T08:04:28;6.3;65.2
78696;SHT31;68030;51.980;5.646;2023-03-03T08:07:01;6.3;65.1
78696;SHT31;68030;51.980;5.646;2023-03-03T08:09:36;6.4;64.8
78696;SHT31;68030;51.980;5.646;2023-03-03T08:12:29;6.4;64.5
78696;SHT31;68030;51.980;5.646;2023-03-03T08:15:18;6.4;64.7
78696;SHT31;68030;51.980;5.646;2023-03-03T08:17:50;6.5;64.5
78696;SHT31;68030;51.980;5.646;2023-03-03T08:22:37;6.5;64.2
78696;SHT31;68030;51.980;5.646;2023-03-03T08:25:08;6.6;63.7
78696;SHT31;68030;51.980;5.646;2023-03-03T08:27:37;6.6;63.1
78696;SHT31;68030;51.980;5.646;2023-03-03T08:30:08;6.6;63.0
78696;SHT31;68030;51.980;5.646;2023-03-03T08:32:38;6.6;62.9
78696;SHT31;68030;51.980;5.646;2023-03-03T08:35:08;6.6;63.0
78696;SHT31;68030;51.980;5.646;2023-03-03T08:37:40;6.7;63.1
78696;SHT31;68030;51.980;5.646;2023-03-03T08:40:11;6.7;62.7
78696;SHT31;68030;51.980;5.646;2023-03-03T08:42:40;6.7;62.9
78696;SHT31;68030;51.980;5.646;2023-03-03T08:45:10;6.8;63.0
78696;SHT31;68030;51.980;5.646;2023-03-03T08:47:39;6.8;62.4
78696;SHT31;68030;51.980;5.646;2023-03-03T08:50:12;6.9;61.7
78696;SHT31;68030;51.980;5.646;2023-03-03T08:52:43;6.9;61.5
78696;SHT31;68030;51.980;5.646;2023-03-03T08:55:15;7.0;61.3
78696;SHT31;68030;51.980;5.646;2023-03-03T08:57:45;7.0;60.8
78696;SHT31;68030;51.980;5.646;2023-03-03T09:00:17;7.1;60.6
78696;SHT31;68030;51.980;5.646;2023-03-03T09:02:49;7.1;60.8
78696;SHT31;68030;51.980;5.646;2023-03-03T09:05:20;7.1;60.9
78696;SHT31;68030;51.980;5.646;2023-03-03T09:07:53;7.2;61.0
78696;SHT31;68030;51.980;5.646;2023-03-03T09:10:24;7.2;60.7
78696;SHT31;68030;51.980;5.646;2023-03-03T09:12:59;7.3;60.4
78696;SHT31;68030;51.980;5.646;2023-03-03T09:15:32;7.3;59.3
78696;SHT31;68030;51.980;5.646;2023-03-03T09:18:17;7.3;59.4
78696;SHT31;68030;51.980;5.646;2023-03-03T09:20:50;7.3;59.2
78696;SHT31;68030;51.980;5.646;2023-03-03T09:23:32;7.3;58.5
78696;SHT31;68030;51.980;5.646;2023-03-03T09:26:27;7.3;58.3
78696;SHT31;68030;51.980;5.646;2023-03-03T09:29:15;7.3;58.3
78696;SHT31;68030;51.980;5.646;2023-03-03T09:31:47;7.3;58.6
78696;SHT31;68030;51.980;5.646;2023-03-03T09:34:35;7.2;59.1
78696;SHT31;68030;51.980;5.646;2023-03-03T09:36:58;7.2;59.5
78696;SHT31;68030;51.980;5.646;2023-03-03T09:39:29;7.3;59.8
78696;SHT31;68030;51.980;5.646;2023-03-03T09:44:24;7.4;59.6
78696;SHT31;68030;51.980;5.646;2023-03-03T09:47:11;7.6;58.4
78696;SHT31;68030;51.980;5.646;2023-03-03T09:49:54;7.7;57.5
78696;SHT31;68030;51.980;5.646;2023-03-03T09:52:33;7.8;57.0
78696;SHT31;68030;51.980;5.646;2023-03-03T09:55:13;7.8;56.8
78696;SHT31;68030;51.980;5.646;2023-03-03T09:58:01;7.9;57.2
78696;SHT31;68030;51.980;5.646;2023-03-03T10:00:48;8.0;57.3
78696;SHT31;68030;51.980;5.646;2023-03-03T10:03:58;8.1;56.3
78696;SHT31;68030;51.980;5.646;2023-03-03T10:06:40;8.3;56.3
78696;SHT31;68030;51.980;5.646;2023-03-03T10:09:38;8.3;55.6
78696;SHT31;68030;51.980;5.646;2023-03-03T10:12:21;8.4;55.0
78696;SHT31;68030;51.980;5.646;2023-03-03T10:15:20;8.5;54.8
78696;SHT31;68030;51.980;5.646;2023-03-03T10:18:11;8.5;55.2
78696;SHT31;68030;51.980;5.646;2023-03-03T10:20:49;8.6;55.1
78696;SHT31;68030;51.980;5.646;2023-03-03T10:23:34;8.6;54.4
78696;SHT31;68030;51.980;5.646;2023-03-03T10:26:16;8.6;54.0
78696;SHT31;68030;51.980;5.646;2023-03-03T10:29:02;8.7;54.1
78696;SHT31;68030;51.980;5.646;2023-03-03T10:31:50;8.7;54.2
78696;SHT31;68030;51.980;5.646;2023-03-03T10:34:47;8.7;54.2
78696;SHT31;68030;51.980;5.646;2023-03-03T10:37:25;8.7;54.5
78696;SHT31;68030;51.980;5.646;2023-03-03T10:40:08;8.7;54.4
78696;SHT31;68030;51.980;5.646;2023-03-03T10:42:57;8.8;54.4
78696;SHT31;68030;51.980;5.646;2023-03-03T10:45:46;8.8;54.4
78696;SHT31;68030;51.980;5.646;2023-03-03T10:48:34;8.9;54.0
78696;SHT31;68030;51.980;5.646;2023-03-03T10:51:15;9.0;54.3
78696;SHT31;68030;51.980;5.646;2023-03-03T10:53:57;9.0;53.9
78696;SHT31;68030;51.980;5.646;2023-03-03T10:56:39;9.1;53.7
78696;SHT31;68030;51.980;5.646;2023-03-03T10:59:30;9.1;53.0
78696;SHT31;68030;51.980;5.646;2023-03-03T11:02:11;9.2;53.5
78696;SHT31;68030;51.980;5.646;2023-03-03T11:04:56;9.3;52.6
78696;SHT31;68030;51.980;5.646;2023-03-03T11:07:38;9.3;52.6
78696;SHT31;68030;51.980;5.646;2023-03-03T11:10:28;9.3;52.7
78696;SHT31;68030;51.980;5.646;2023-03-03T11:13:11;9.3;52.9
78696;SHT31;68030;51.980;5.646;2023-03-03T11:15:53;9.4;52.7
78696;SHT31;68030;51.980;5.646;2023-03-03T11:18:34;9.4;51.9
78696;SHT31;68030;51.980;5.646;2023-03-03T11:21:14;9.4;51.6
78696;SHT31;68030;51.980;5.646;2023-03-03T11:23:57;9.4;51.2
78696;SHT31;68030;51.980;5.646;2023-03-03T11:26:48;9.4;51.9
78696;SHT31;68030;51.980;5.646;2023-03-03T11:29:31;9.5;51.9
78696;SHT31;68030;51.980;5.646;2023-03-03T11:32:18;9.5;51.7
78696;SHT31;68030;51.980;5.646;2023-03-03T11:34:59;9.6;51.5
78696;SHT31;68030;51.980;5.646;2023-03-03T11:37:41;9.7;51.2
78696;SHT31;68030;51.980;5.646;2023-03-03T11:40:16;9.8;51.1
78696;SHT31;68030;51.980;5.646;2023-03-03T11:43:00;9.9;51.1
78696;SHT31;68030;51.980;5.646;2023-03-03T11:45:40;10.0;50.1
78696;SHT31;68030;51.980;5.646;2023-03-03T11:48:17;10.1;49.1
78696;SHT31;68030;51.980;5.646;2023-03-03T11:50:57;10.2;49.2
78696;SHT31;68030;51.980;5.646;2023-03-03T11:53:42;10.3;49.1
78696;SHT31;68030;51.980;5.646;2023-03-03T11:56:21;10.4;48.3
78696;SHT31;68030;51.980;5.646;2023-03-03T11:59:06;10.5;48.0
78696;SHT31;68030;51.980;5.646;2023-03-03T12:01:44;10.5;47.6
78696;SHT31;68030;51.980;5.646;2023-03-03T12:04:19;10.6;47.2
78696;SHT31;68030;51.980;5.646;2023-03-03T12:07:08;10.7;46.8
78696;SHT31;68030;51.980;5.646;2023-03-03T12:09:50;10.8;47.1
78696;SHT31;68030;51.980;5.646;2023-03-03T12:12:23;10.8;46.6
78696;SHT31;68030;51.980;5.646;2023-03-03T12:15:02;10.8;46.7
78696;SHT31;68030;51.980;5.646;2023-03-03T12:17:50;10.8;46.3
78696;SHT31;68030;51.980;5.646;2023-03-03T12:20:28;10.9;45.8
78696;SHT31;68030;51.980;5.646;2023-03-03T12:23:07;10.9;45.7
78696;SHT31;68030;51.980;5.646;2023-03-03T12:25:43;10.9;45.4
78696;SHT31;68030;51.980;5.646;2023-03-03T12:28:17;10.9;44.6
78696;SHT31;68030;51.980;5.646;2023-03-03T12:31:21;10.9;44.8
78696;SHT31;68030;51.980;5.646;2023-03-03T12:33:57;11.0;44.2
78696;SHT31;68030;51.980;5.646;2023-03-03T12:36:39;11.0;43.8
78696;SHT31;68030;51.980;5.646;2023-03-03T12:39:24;11.1;44.1
78696;SHT31;68030;51.980;5.646;2023-03-03T12:42:06;11.2;45.6
78696;SHT31;68030;51.980;5.646;2023-03-03T12:44:44;11.2;45.6
78696;SHT31;68030;51.980;5.646;2023-03-03T12:47:24;11.3;45.2
78696;SHT31;68030;51.980;5.646;2023-03-03T12:50:05;11.4;45.0
78696;SHT31;68030;51.980;5.646;2023-03-03T12:52:48;11.4;44.3
78696;SHT31;68030;51.980;5.646;2023-03-03T12:55:31;11.5;43.8
78696;SHT31;68030;51.980;5.646;2023-03-03T12:58:14;11.5;43.8
78696;SHT31;68030;51.980;5.646;2023-03-03T13:00:58;11.5;43.5
78696;SHT31;68030;51.980;5.646;2023-03-03T13:03:41;11.5;43.4
78696;SHT31;68030;51.980;5.646;2023-03-03T13:06:22;11.5;43.2
78696;SHT31;68030;51.980;5.646;2023-03-03T13:09:15;11.5;42.4
78696;SHT31;68030;51.980;5.646;2023-03-03T13:11:57;11.5;42.5
78696;SHT31;68030;51.980;5.646;2023-03-03T13:14:37;11.5;42.6
78696;SHT31;68030;51.980;5.646;2023-03-03T13:17:21;11.5;42.0
78696;SHT31;68030;51.980;5.646;2023-03-03T13:19:56;11.6;42.1
78696;SHT31;68030;51.980;5.646;2023-03-03T13:22:51;11.6;42.5
78696;SHT31;68030;51.980;5.646;2023-03-03T13:25:43;11.7;42.0
78696;SHT31;68030;51.980;5.646;2023-03-03T13:28:20;11.8;42.0
78696;SHT31;68030;51.980;5.646;2023-03-03T13:31:00;11.9;42.5
78696;SHT31;68030;51.980;5.646;2023-03-03T13:33:34;12.0;42.9
78696;SHT31;68030;51.980;5.646;2023-03-03T13:36:08;12.1;43.2
78696;SHT31;68030;51.980;5.646;2023-03-03T13:38:45;12.2;42.2
78696;SHT31;68030;51.980;5.646;2023-03-03T13:41:22;12.3;41.3
78696;SHT31;68030;51.980;5.646;2023-03-03T13:43:57;12.3;41.1
78696;SHT31;68030;51.980;5.646;2023-03-03T13:46:36;12.3;41.1
78696;SHT31;68030;51.980;5.646;2023-03-03T13:49:25;12.2;41.3
78696;SHT31;68030;51.980;5.646;2023-03-03T13:52:00;12.2;41.0
78696;SHT31;68030;51.980;5.646;2023-03-03T13:54:49;12.2;41.1
78696;SHT31;68030;51.980;5.646;2023-03-03T13:57:44;12.2;41.7
78696;SHT31;68030;51.980;5.646;2023-03-03T14:00:24;12.2;41.8
78696;SHT31;68030;51.980;5.646;2023-03-03T14:03:24;12.3;42.2
78696;SHT31;68030;51.980;5.646;2023-03-03T14:06:01;12.4;42.0
78696;SHT31;68030;51.980;5.646;2023-03-03T14:08:45;12.5;41.1
78696;SHT31;68030;51.980;5.646;2023-03-03T14:11:22;12.5;40.7
78696;SHT31;68030;51.980;5.646;2023-03-03T14:14:00;12.6;40.2
78696;SHT31;68030;51.980;5.646;2023-03-03T14:16:51;12.5;40.2
78696;SHT31;68030;51.980;5.646;2023-03-03T14:19:30;12.5;39.9
78696;SHT31;68030;51.980;5.646;2023-03-03T14:22:17;12.5;40.4
78696;SHT31;68030;51.980;5.646;2023-03-03T14:25:00;12.5;41.6
78696;SHT31;68030;51.980;5.646;2023-03-03T14:27:37;12.5;41.5
78696;SHT31;68030;51.980;5.646;2023-03-03T14:30:24;12.4;41.9
78696;SHT31;68030;51.980;5.646;2023-03-03T14:33:20;12.3;41.7
78696;SHT31;68030;51.980;5.646;2023-03-03T14:36:04;12.2;42.0
78696;SHT31;68030;51.980;5.646;2023-03-03T14:38:42;12.2;41.8
78696;SHT31;68030;51.980;5.646;2023-03-03T14:41:16;12.2;42.3
78696;SHT31;68030;51.980;5.646;2023-03-03T14:43:57;12.2;42.5
78696;SHT31;68030;51.980;5.646;2023-03-03T14:46:39;12.2;42.8
78696;SHT31;68030;51.980;5.646;2023-03-03T14:49:27;12.3;43.3
78696;SHT31;68030;51.980;5.646;2023-03-03T14:51:50;12.4;43.3
78696;SHT31;68030;51.980;5.646;2023-03-03T14:54:26;12.4;42.6
78696;SHT31;68030;51.980;5.646;2023-03-03T14:57:14;12.4;42.7
78696;SHT31;68030;51.980;5.646;2023-03-03T14:59:56;12.5;42.3
78696;SHT31;68030;51.980;5.646;2023-03-03T15:02:32;12.5;42.0
78696;SHT31;68030;51.980;5.646;2023-03-03T15:05:17;12.5;42.1
78696;SHT31;68030;51.980;5.646;2023-03-03T15:07:49;12.5;42.2
78696;SHT31;68030;51.980;5.646;2023-03-03T15:10:35;12.5;42.0
78696;SHT31;68030;51.980;5.646;2023-03-03T15:13:51;12.5;41.3
78696;SHT31;68030;51.980;5.646;2023-03-03T15:16:23;12.4;41.7
78696;SHT31;68030;51.980;5.646;2023-03-03T15:19:38;12.3;41.4
78696;SHT31;68030;51.980;5.646;2023-03-03T15:22:20;12.2;41.8
78696;SHT31;68030;51.980;5.646;2023-03-03T15:24:59;12.1;41.5
78696;SHT31;68030;51.980;5.646;2023-03-03T15:27:36;12.0;42.6
78696;SHT31;68030;51.980;5.646;2023-03-03T15:30:23;11.9;42.8
78696;SHT31;68030;51.980;5.646;2023-03-03T15:33:00;11.8;43.5
78696;SHT31;68030;51.980;5.646;2023-03-03T15:35:47;11.7;44.3
78696;SHT31;68030;51.980;5.646;2023-03-03T15:38:26;11.6;44.5
78696;SHT31;68030;51.980;5.646;2023-03-03T15:41:04;11.6;44.1
78696;SHT31;68030;51.980;5.646;2023-03-03T15:43:41;11.6;43.4
78696;SHT31;68030;51.980;5.646;2023-03-03T15:46:24;11.6;43.0
78696;SHT31;68030;51.980;5.646;2023-03-03T15:49:20;11.5;42.5
78696;SHT31;68030;51.980;5.646;2023-03-03T15:52:07;11.5;42.7
78696;SHT31;68030;51.980;5.646;2023-03-03T15:54:56;11.5;42.7
78696;SHT31;68030;51.980;5.646;2023-03-03T15:57:39;11.4;42.4
78696;SHT31;68030;51.980;5.646;2023-03-03T16:01:03;11.4;42.5
78696;SHT31;68030;51.980;5.646;2023-03-03T16:03:42;11.3;43.1
78696;SHT31;68030;51.980;5.646;2023-03-03T16:06:23;11.3;43.2
78696;SHT31;68030;51.980;5.646;2023-03-03T16:09:04;11.3;43.7
78696;SHT31;68030;51.980;5.646;2023-03-03T16:11:45;11.3;44.0
78696;SHT31;68030;51.980;5.646;2023-03-03T16:14:37;11.3;44.4
78696;SHT31;68030;51.980;5.646;2023-03-03T16:17:21;11.3;44.9
78696;SHT31;68030;51.980;5.646;2023-03-03T16:22:43;11.2;44.2
78696;SHT31;68030;51.980;5.646;2023-03-03T16:25:33;11.2;44.5
78696;SHT31;68030;51.980;5.646;2023-03-03T16:28:10;11.1;44.8
78696;SHT31;68030;51.980;5.646;2023-03-03T16:30:54;11.0;45.2
78696;SHT31;68030;51.980;5.646;2023-03-03T16:33:35;10.9;45.4
78696;SHT31;68030;51.980;5.646;2023-03-03T16:36:24;10.9;45.9
78696;SHT31;68030;51.980;5.646;2023-03-03T16:39:04;10.8;46.1
78696;SHT31;68030;51.980;5.646;2023-03-03T16:41:46;10.8;45.3
78696;SHT31;68030;51.980;5.646;2023-03-03T16:44:36;10.7;45.6
78696;SHT31;68030;51.980;5.646;2023-03-03T16:47:21;10.6;45.6
78696;SHT31;68030;51.980;5.646;2023-03-03T16:50:06;10.5;45.5
78696;SHT31;68030;51.980;5.646;2023-03-03T16:52:44;10.4;45.6
78696;SHT31;68030;51.980;5.646;2023-03-03T16:55:19;10.4;46.0
78696;SHT31;68030;51.980;5.646;2023-03-03T16:58:01;10.3;46.4
78696;SHT31;68030;51.980;5.646;2023-03-03T17:00:39;10.2;46.5
78696;SHT31;68030;51.980;5.646;2023-03-03T17:03:30;10.1;46.8
78696;SHT31;68030;51.980;5.646;2023-03-03T17:06:10;10.1;47.0
78696;SHT31;68030;51.980;5.646;2023-03-03T17:09:16;10.0;46.9
78696;SHT31;68030;51.980;5.646;2023-03-03T17:12:00;10.0;47.2
78696;SHT31;68030;51.980;5.646;2023-03-03T17:14:43;9.9;47.4
78696;SHT31;68030;51.980;5.646;2023-03-03T17:17:27;9.9;47.2
78696;SHT31;68030;51.980;5.646;2023-03-03T17:20:06;9.8;47.4
78696;SHT31;68030;51.980;5.646;2023-03-03T17:22:46;9.7;47.4
78696;SHT31;68030;51.980;5.646;2023-03-03T17:25:28;9.7;47.1
78696;SHT31;68030;51.980;5.646;2023-03-03T17:28:06;9.6;47.0
78696;SHT31;68030;51.980;5.646;2023-03-03T17:30:47;9.6;46.6
78696;SHT31;68030;51.980;5.646;2023-03-03T17:33:49;9.5;46.7
78696;SHT31;68030;51.980;5.646;2023-03-03T17:36:34;9.4;47.0
78696;SHT31;68030;51.980;5.646;2023-03-03T17:39:17;9.3;47.1
78696;SHT31;68030;51.980;5.646;2023-03-03T17:41:56;9.2;47.5
78696;SHT31;68030;51.980;5.646;2023-03-03T17:44:35;9.1;47.9
78696;SHT31;68030;51.980;5.646;2023-03-03T17:47:10;9.1;48.0
78696;SHT31;68030;51.980;5.646;2023-03-03T17:50:00;9.1;48.1
78696;SHT31;68030;51.980;5.646;2023-03-03T17:52:48;9.1;48.3
78696;SHT31;68030;51.980;5.646;2023-03-03T17:56:26;9.0;48.5
78696;SHT31;68030;51.980;5.646;2023-03-03T18:00:50;9.0;48.6
78696;SHT31;68030;51.980;5.646;2023-03-03T18:03:43;9.1;48.7
78696;SHT31;68030;51.980;5.646;2023-03-03T18:06:40;9.1;48.8
78696;SHT31;68030;51.980;5.646;2023-03-03T18:09:26;9.1;48.8
78696;SHT31;68030;51.980;5.646;2023-03-03T18:12:04;9.1;49.0
78696;SHT31;68030;51.980;5.646;2023-03-03T18:14:57;9.1;48.8
78696;SHT31;68030;51.980;5.646;2023-03-03T18:17:39;9.2;48.8
78696;SHT31;68030;51.980;5.646;2023-03-03T18:21:30;9.2;49.0
78696;SHT31;68030;51.980;5.646;2023-03-03T18:24:26;9.3;49.1
78696;SHT31;68030;51.980;5.646;2023-03-03T18:27:23;9.4;49.2
78696;SHT31;68030;51.980;5.646;2023-03-03T18:30:46;9.4;49.2
78696;SHT31;68030;51.980;5.646;2023-03-03T18:33:34;9.5;49.2
78696;SHT31;68030;51.980;5.646;2023-03-03T18:36:37;9.6;48.7
78696;SHT31;68030;51.980;5.646;2023-03-03T18:39:12;9.6;48.7
78696;SHT31;68030;51.980;5.646;2023-03-03T18:42:07;9.6;48.9
78696;SHT31;68030;51.980;5.646;2023-03-03T18:44:38;9.6;48.7
78696;SHT31;68030;51.980;5.646;2023-03-03T18:47:10;9.6;48.4
78696;SHT31;68030;51.980;5.646;2023-03-03T18:51:50;9.5;48.7
78696;SHT31;68030;51.980;5.646;2023-03-03T18:54:24;9.4;48.9
78696;SHT31;68030;51.980;5.646;2023-03-03T19:01:39;9.3;49.5
78696;SHT31;68030;51.980;5.646;2023-03-03T19:04:22;9.3;49.8
78696;SHT31;68030;51.980;5.646;2023-03-03T19:10:00;9.3;50.2
78696;SHT31;68030;51.980;5.646;2023-03-03T19:12:49;9.3;50.4
78696;SHT31;68030;51.980;5.646;2023-03-03T19:17:43;9.3;50.7
78696;SHT31;68030;51.980;5.646;2023-03-03T19:20:20;9.3;50.1
78696;SHT31;68030;51.980;5.646;2023-03-03T19:23:02;9.3;49.9
78696;SHT31;68030;51.980;5.646;2023-03-03T19:25:33;9.3;50.0
78696;SHT31;68030;51.980;5.646;2023-03-03T19:28:25;9.3;50.0
78696;SHT31;68030;51.980;5.646;2023-03-03T19:31:04;9.2;50.2
78696;SHT31;68030;51.980;5.646;2023-03-03T19:33:49;9.2;50.5
78696;SHT31;68030;51.980;5.646;2023-03-03T19:42:43;9.1;51.2
78696;SHT31;68030;51.980;5.646;2023-03-03T19:45:26;9.1;51.4
78696;SHT31;68030;51.980;5.646;2023-03-03T19:48:04;9.1;51.5
78696;SHT31;68030;51.980;5.646;2023-03-03T19:50:47;9.1;51.5
78696;SHT31;68030;51.980;5.646;2023-03-03T19:53:26;9.2;51.5
78696;SHT31;68030;51.980;5.646;2023-03-03T19:56:19;9.2;51.5
78696;SHT31;68030;51.980;5.646;2023-03-03T19:59:09;9.2;51.4
78696;SHT31;68030;51.980;5.646;2023-03-03T20:01:58;9.2;51.5
78696;SHT31;68030;51.980;5.646;2023-03-03T20:04:58;9.3;51.3
78696;SHT31;68030;51.980;5.646;2023-03-03T20:07:39;9.3;51.4
78696;SHT31;68030;51.980;5.646;2023-03-03T20:10:40;9.3;51.7
78696;SHT31;68030;51.980;5.646;2023-03-03T20:13:56;9.3;51.4
78696;SHT31;68030;51.980;5.646;2023-03-03T20:16:36;9.3;51.7
78696;SHT31;68030;51.980;5.646;2023-03-03T20:19:26;9.3;51.7
78696;SHT31;68030;51.980;5.646;2023-03-03T20:22:06;9.4;51.8
78696;SHT31;68030;51.980;5.646;2023-03-03T20:24:59;9.4;51.8
78696;SHT31;68030;51.980;5.646;2023-03-03T20:27:46;9.4;51.5
78696;SHT31;68030;51.980;5.646;2023-03-03T20:30:27;9.4;51.2
78696;SHT31;68030;51.980;5.646;2023-03-03T20:33:19;9.4;51.3
78696;SHT31;68030;51.980;5.646;2023-03-03T20:36:01;9.4;51.7
78696;SHT31;68030;51.980;5.646;2023-03-03T20:38:44;9.4;51.9
78696;SHT31;68030;51.980;5.646;2023-03-03T20:41:28;9.4;51.9
78696;SHT31;68030;51.980;5.646;2023-03-03T20:44:08;9.5;51.9
78696;SHT31;68030;51.980;5.646;2023-03-03T20:46:52;9.5;51.7
78696;SHT31;68030;51.980;5.646;2023-03-03T20:50:12;9.5;51.8
78696;SHT31;68030;51.980;5.646;2023-03-03T20:52:57;9.6;51.7
78696;SHT31;68030;51.980;5.646;2023-03-03T20:55:40;9.6;51.7
78696;SHT31;68030;51.980;5.646;2023-03-03T20:58:22;9.6;51.7
78696;SHT31;68030;51.980;5.646;2023-03-03T21:01:04;9.6;51.8
78696;SHT31;68030;51.980;5.646;2023-03-03T21:03:36;9.7;51.8
78696;SHT31;68030;51.980;5.646;2023-03-03T21:06:08;9.7;51.8
78696;SHT31;68030;51.980;5.646;2023-03-03T21:08:45;9.7;51.5
78696;SHT31;68030;51.980;5.646;2023-03-03T21:11:21;9.7;51.6
78696;SHT31;68030;51.980;5.646;2023-03-03T21:13:52;9.8;51.5
78696;SHT31;68030;51.980;5.646;2023-03-03T21:16:30;9.8;51.4
78696;SHT31;68030;51.980;5.646;2023-03-03T21:19:04;9.8;51.4
78696;SHT31;68030;51.980;5.646;2023-03-03T21:21:37;9.8;51.6
78696;SHT31;68030;51.980;5.646;2023-03-03T21:24:10;9.8;51.5
78696;SHT31;68030;51.980;5.646;2023-03-03T21:26:48;9.8;51.2
78696;SHT31;68030;51.980;5.646;2023-03-03T21:29:23;9.8;51.2
78696;SHT31;68030;51.980;5.646;2023-03-03T21:31:56;9.7;50.9
78696;SHT31;68030;51.980;5.646;2023-03-03T21:34:28;9.7;51.1
78696;SHT31;68030;51.980;5.646;2023-03-03T21:37:00;9.7;51.2
78696;SHT31;68030;51.980;5.646;2023-03-03T21:39:32;9.7;51.3
78696;SHT31;68030;51.980;5.646;2023-03-03T21:42:05;9.6;51.6
78696;SHT31;68030;51.980;5.646;2023-03-03T21:44:37;9.6;51.8
78696;SHT31;68030;51.980;5.646;2023-03-03T21:47:09;9.6;52.0
78696;SHT31;68030;51.980;5.646;2023-03-03T21:49:42;9.6;52.2
78696;SHT31;68030;51.980;5.646;2023-03-03T21:52:14;9.6;52.4
78696;SHT31;68030;51.980;5.646;2023-03-03T21:54:45;9.6;52.5
78696;SHT31;68030;51.980;5.646;2023-03-03T21:57:16;9.6;52.6
78696;SHT31;68030;51.980;5.646;2023-03-03T21:59:48;9.6;52.5
78696;SHT31;68030;51.980;5.646;2023-03-03T22:02:17;9.6;52.4
78696;SHT31;68030;51.980;5.646;2023-03-03T22:04:48;9.7;52.4
78696;SHT31;68030;51.980;5.646;2023-03-03T22:07:20;9.7;52.3
78696;SHT31;68030;51.980;5.646;2023-03-03T22:09:49;9.7;52.3
78696;SHT31;68030;51.980;5.646;2023-03-03T22:12:21;9.7;52.3
78696;SHT31;68030;51.980;5.646;2023-03-03T22:14:50;9.8;52.1
78696;SHT31;68030;51.980;5.646;2023-03-03T22:17:20;9.8;52.1
78696;SHT31;68030;51.980;5.646;2023-03-03T22:19:51;9.8;52.0
78696;SHT31;68030;51.980;5.646;2023-03-03T22:22:22;9.9;51.6
78696;SHT31;68030;51.980;5.646;2023-03-03T22:24:52;9.9;51.1
78696;SHT31;68030;51.980;5.646;2023-03-03T22:27:22;9.9;51.1
78696;SHT31;68030;51.980;5.646;2023-03-03T22:29:52;9.9;51.3
78696;SHT31;68030;51.980;5.646;2023-03-03T22:32:22;9.9;51.3
78696;SHT31;68030;51.980;5.646;2023-03-03T22:34:51;9.9;51.2
78696;SHT31;68030;51.980;5.646;2023-03-03T22:37:21;9.9;51.3
78696;SHT31;68030;51.980;5.646;2023-03-03T22:39:50;9.9;51.3
78696;SHT31;68030;51.980;5.646;2023-03-03T22:42:20;9.8;51.1
78696;SHT31;68030;51.980;5.646;2023-03-03T22:44:51;9.8;51.3
78696;SHT31;68030;51.980;5.646;2023-03-03T22:47:21;9.8;51.3
78696;SHT31;68030;51.980;5.646;2023-03-03T22:49:51;9.8;51.4
78696;SHT31;68030;51.980;5.646;2023-03-03T22:52:22;9.8;51.5
78696;SHT31;68030;51.980;5.646;2023-03-03T22:54:51;9.8;51.7
78696;SHT31;68030;51.980;5.646;2023-03-03T22:57:21;9.8;51.9
78696;SHT31;68030;51.980;5.646;2023-03-03T22:59:51;9.9;51.9
78696;SHT31;68030;51.980;5.646;2023-03-03T23:02:21;9.9;52.0
78696;SHT31;68030;51.980;5.646;2023-03-03T23:04:50;9.9;52.0
78696;SHT31;68030;51.980;5.646;2023-03-03T23:07:24;9.9;51.2
78696;SHT31;68030;51.980;5.646;2023-03-03T23:09:55;9.9;51.3
78696;SHT31;68030;51.980;5.646;2023-03-03T23:12:25;9.9;51.5
78696;SHT31;68030;51.980;5.646;2023-03-03T23:14:55;9.8;51.7
78696;SHT31;68030;51.980;5.646;2023-03-03T23:17:24;9.8;52.0
78696;SHT31;68030;51.980;5.646;2023-03-03T23:19:54;9.8;52.3